createdAt,value
2022-08-17T00:00:33.294Z,6.55
2022-08-17T00:03:11.566Z,4.38
2022-08-17T00:05:45.494Z,5.43
2022-08-17T00:08:14.855Z,4.50
2022-08-17T00:10:43.928Z,5.78
2022-08-17T00:13:17.189Z,4.40
2022-08-17T00:15:45.716Z,5.47
2022-08-17T00:19:01.768Z,4.63
2022-08-17T00:21:10.359Z,5.25
2022-08-17T00:23:39.464Z,5.38
2022-08-17T00:26:15.966Z,7.38
2022-08-17T00:29:04.304Z,5.07
2022-08-17T00:31:32.161Z,3.97
2022-08-17T00:34:00.358Z,4.70
2022-08-17T00:36:29.544Z,6.50
2022-08-17T00:38:57.303Z,5.10
2022-08-17T00:41:27.292Z,5.07
2022-08-17T00:43:58.961Z,4.82
2022-08-17T00:46:30.037Z,5.32
2022-08-17T00:48:58.476Z,5.47
2022-08-17T00:51:32.855Z,4.70
2022-08-17T00:54:05.584Z,4.47
2022-08-17T00:56:37.223Z,4.00
2022-08-17T00:59:08.145Z,3.55
2022-08-17T01:01:36.185Z,6.55
2022-08-17T01:04:05.299Z,8.98
2022-08-17T01:06:34.759Z,6.05
2022-08-17T01:09:04.876Z,3.78
2022-08-17T01:11:36.106Z,4.22
2022-08-17T01:14:04.589Z,4.95
2022-08-17T01:16:33.252Z,5.22
2022-08-17T01:19:03.068Z,3.90
2022-08-17T01:21:47.200Z,3.83
2022-08-17T01:24:16.496Z,4.82
2022-08-17T01:26:45.468Z,4.97
2022-08-17T01:29:14.037Z,4.70
2022-08-17T01:31:45.831Z,7.15
2022-08-17T01:34:16.745Z,4.03
2022-08-17T01:36:47.488Z,9.30
2022-08-17T01:39:22.218Z,4.32
2022-08-17T01:41:54.392Z,4.18
2022-08-17T01:44:23.916Z,8.98
2022-08-17T01:46:51.852Z,8.13
2022-08-17T01:49:20.168Z,4.80
2022-08-17T01:51:47.962Z,3.53
2022-08-17T01:54:19.652Z,5.32
2022-08-17T01:56:50.256Z,9.90
2022-08-17T01:59:20.209Z,6.95
2022-08-17T02:01:58.820Z,4.05
2022-08-17T02:04:26.819Z,4.15
2022-08-17T02:06:54.755Z,4.85
2022-08-17T02:09:26.074Z,5.53
2022-08-17T02:11:59.208Z,5.75
2022-08-17T02:14:27.808Z,3.88
2022-08-17T02:16:56.085Z,5.03
2022-08-17T02:19:23.980Z,8.57
2022-08-17T02:21:55.190Z,4.50
2022-08-17T02:24:59.674Z,6.35
2022-08-17T02:27:16.244Z,4.93
2022-08-17T02:29:44.029Z,5.90
2022-08-17T02:32:25.289Z,4.93
2022-08-17T02:34:55.802Z,5.30
2022-08-17T02:37:23.579Z,6.05
2022-08-17T02:39:52.800Z,6.03
2022-08-17T02:42:27.649Z,6.13
2022-08-17T02:44:55.510Z,4.10
2022-08-17T02:47:23.499Z,9.23
2022-08-17T02:49:55.391Z,6.38
2022-08-17T02:52:53.640Z,4.18
2022-08-17T02:55:20.514Z,5.35
2022-08-17T02:57:49.342Z,4.95
2022-08-17T03:00:22.115Z,5.35
2022-08-17T03:02:51.178Z,4.75
2022-08-17T03:05:22.443Z,3.95
2022-08-17T03:07:50.972Z,5.82
2022-08-17T03:10:21.780Z,4.93
2022-08-17T03:12:50.271Z,6.38
2022-08-17T03:15:23.443Z,4.22
2022-08-17T03:17:52.308Z,4.28
2022-08-17T03:20:21.476Z,5.05
2022-08-17T03:22:53.303Z,5.18
2022-08-17T03:25:25.973Z,4.78
2022-08-17T03:27:54.775Z,5.38
2022-08-17T03:30:23.984Z,6.50
2022-08-17T03:32:54.740Z,4.25
2022-08-17T03:35:25.628Z,5.00
2022-08-17T03:38:00.818Z,6.53
2022-08-17T03:40:34.779Z,3.90
2022-08-17T03:43:21.504Z,4.78
2022-08-17T03:46:27.361Z,5.35
2022-08-17T03:49:27.248Z,5.03
2022-08-17T03:52:13.263Z,3.90
2022-08-17T03:54:59.106Z,4.10
2022-08-17T03:57:29.071Z,9.35
2022-08-17T03:59:58.382Z,7.15
2022-08-17T04:02:29.588Z,5.28
2022-08-17T04:04:58.477Z,4.13
2022-08-17T04:07:28.527Z,12.20
2022-08-17T04:09:57.790Z,6.05
2022-08-17T04:12:26.367Z,5.63
2022-08-17T04:14:55.556Z,8.45
2022-08-17T04:17:26.031Z,7.38
2022-08-17T04:19:55.278Z,6.78
2022-08-17T04:22:30.996Z,5.53
2022-08-17T04:25:09.366Z,4.85
2022-08-17T04:27:37.476Z,8.25
2022-08-17T04:30:08.188Z,5.00
2022-08-17T04:33:00.617Z,5.40
2022-08-17T04:35:38.420Z,5.68
2022-08-17T04:38:07.202Z,3.95
2022-08-17T04:40:53.043Z,6.13
2022-08-17T04:43:23.259Z,4.95
2022-08-17T04:45:56.583Z,5.13
2022-08-17T04:48:35.500Z,6.95
2022-08-17T04:51:10.566Z,4.00
2022-08-17T04:53:40.002Z,6.68
2022-08-17T04:56:11.752Z,4.25
2022-08-17T04:58:45.889Z,7.10
2022-08-17T05:01:16.297Z,4.75
2022-08-17T05:03:51.421Z,3.83
2022-08-17T05:06:19.196Z,4.18
2022-08-17T05:08:46.969Z,5.25
2022-08-17T05:11:15.713Z,4.70
2022-08-17T05:13:43.578Z,5.22
2022-08-17T05:16:12.018Z,8.45
2022-08-17T05:18:41.272Z,4.70
2022-08-17T05:21:09.894Z,4.88
2022-08-17T05:23:42.667Z,4.00
2022-08-17T05:26:24.743Z,4.50
2022-08-17T05:28:56.971Z,5.07
2022-08-17T05:31:26.549Z,6.72
2022-08-17T05:33:55.774Z,3.92
2022-08-17T05:36:41.763Z,4.07
2022-08-17T05:39:15.990Z,5.88
2022-08-17T05:41:44.671Z,3.78
2022-08-17T05:44:12.488Z,3.63
2022-08-17T05:46:44.669Z,4.55
2022-08-17T05:49:17.061Z,5.22
2022-08-17T05:52:06.263Z,4.47
2022-08-17T05:54:45.231Z,3.35
2022-08-17T05:57:47.533Z,4.05
2022-08-17T06:00:30.112Z,4.43
2022-08-17T06:03:37.762Z,4.05
2022-08-17T06:06:25.094Z,6.30
2022-08-17T06:09:14.769Z,5.63
2022-08-17T06:11:48.145Z,4.78
2022-08-17T06:14:39.776Z,4.55
2022-08-17T06:17:12.323Z,6.40
2022-08-17T06:19:43.535Z,5.50
2022-08-17T06:22:16.395Z,4.10
2022-08-17T06:24:49.983Z,4.82
2022-08-17T06:27:24.432Z,5.47
2022-08-17T06:29:56.964Z,5.28
2022-08-17T06:32:26.048Z,3.88
2022-08-17T06:34:55.164Z,6.80
2022-08-17T06:37:49.588Z,3.78
2022-08-17T06:40:33.681Z,5.93
2022-08-17T06:43:16.550Z,8.35
2022-08-17T06:45:49.409Z,6.07
2022-08-17T06:48:25.374Z,6.55
2022-08-17T06:50:58.536Z,3.65
2022-08-17T06:53:32.071Z,6.15
2022-08-17T06:56:06.114Z,7.90
2022-08-17T06:58:35.663Z,4.28
2022-08-17T07:01:09.246Z,8.48
2022-08-17T07:03:42.471Z,13.65
2022-08-17T07:06:16.711Z,7.82
2022-08-17T07:08:58.907Z,5.18
2022-08-17T07:11:32.980Z,8.57
2022-08-17T07:14:17.330Z,4.65
2022-08-17T07:16:48.110Z,4.32
2022-08-17T07:19:17.705Z,5.18
2022-08-17T07:21:54.924Z,5.93
2022-08-17T07:24:41.475Z,5.22
2022-08-17T07:27:15.254Z,3.35
2022-08-17T07:29:49.011Z,3.50
2022-08-17T07:32:20.097Z,3.58
2022-08-17T07:35:11.280Z,5.30
2022-08-17T07:37:41.071Z,4.30
2022-08-17T07:40:26.364Z,4.20
2022-08-17T07:43:21.959Z,4.68
2022-08-17T07:46:19.236Z,6.05
2022-08-17T07:48:50.540Z,5.50
2022-08-17T07:51:25.967Z,3.88
2022-08-17T07:54:04.809Z,5.53
2022-08-17T07:56:45.855Z,6.28
2022-08-17T07:59:18.010Z,5.55
2022-08-17T08:02:05.420Z,5.82
2022-08-17T08:04:59.212Z,8.88
2022-08-17T08:07:29.376Z,7.00
2022-08-17T08:10:10.616Z,4.22
2022-08-17T08:12:42.479Z,8.63
2022-08-17T08:15:18.487Z,6.60
2022-08-17T08:17:51.271Z,7.05
2022-08-17T08:20:51.146Z,6.53
2022-08-17T08:23:18.632Z,4.22
2022-08-17T08:25:57.306Z,4.63
2022-08-17T08:28:31.438Z,5.43
2022-08-17T08:31:09.532Z,3.33
2022-08-17T08:33:51.766Z,5.97
2022-08-17T08:37:12.982Z,8.02
2022-08-17T08:39:38.243Z,4.43
2022-08-17T08:42:16.770Z,8.30
2022-08-17T08:45:00.999Z,4.63
2022-08-17T08:47:53.130Z,7.13
2022-08-17T08:50:37.086Z,16.83
2022-08-17T08:53:28.574Z,7.30
2022-08-17T08:56:04.053Z,10.60
2022-08-17T08:58:42.079Z,11.60
2022-08-17T09:01:19.471Z,11.77
2022-08-17T09:04:25.587Z,6.60
2022-08-17T09:07:10.153Z,4.65
2022-08-17T09:09:50.520Z,5.75
2022-08-17T09:12:26.279Z,8.30
2022-08-17T09:15:01.460Z,3.78
2022-08-17T09:17:38.260Z,11.32
2022-08-17T09:20:27.670Z,10.02
2022-08-17T09:23:03.867Z,11.20
2022-08-17T09:25:37.159Z,9.80
2022-08-17T09:28:08.479Z,10.27
2022-08-17T09:30:46.930Z,5.28
2022-08-17T09:33:22.696Z,5.68
2022-08-17T09:35:55.055Z,6.68
2022-08-17T09:38:32.482Z,13.80
2022-08-17T09:41:10.238Z,7.93
2022-08-17T09:43:45.276Z,5.85
2022-08-17T09:46:18.637Z,12.05
2022-08-17T09:48:55.383Z,7.93
2022-08-17T09:51:30.263Z,9.80
2022-08-17T09:54:14.768Z,6.05
2022-08-17T09:57:18.134Z,4.60
2022-08-17T09:59:57.922Z,6.20
2022-08-17T10:02:43.615Z,9.95
2022-08-17T10:05:18.593Z,6.78
2022-08-17T10:07:55.932Z,9.77
2022-08-17T10:10:29.622Z,10.90
2022-08-17T10:13:10.791Z,11.07
2022-08-17T10:15:49.477Z,12.13
2022-08-17T10:18:34.192Z,14.90
2022-08-17T10:21:25.870Z,11.38
2022-08-17T10:24:18.613Z,13.45
2022-08-17T10:26:56.772Z,11.23
2022-08-17T10:29:46.241Z,10.15
2022-08-17T10:32:28.552Z,10.88
2022-08-17T10:35:19.056Z,8.82
2022-08-17T10:38:01.209Z,13.88
2022-08-17T10:40:37.801Z,8.27
2022-08-17T10:43:22.759Z,9.50
2022-08-17T10:46:30.531Z,6.72
2022-08-17T10:49:48.492Z,11.30
2022-08-17T11:07:57.191Z,11.02
2022-08-17T11:11:13.673Z,9.00
2022-08-17T11:45:51.785Z,13.93
2022-08-17T11:50:14.652Z,8.23
2022-08-17T11:54:53.605Z,7.55
2022-08-17T11:59:20.723Z,12.55
2022-08-17T13:05:03.981Z,19.55
2022-08-17T13:08:59.637Z,9.77
2022-08-17T13:25:40.548Z,9.55
2022-08-17T14:01:28.233Z,15.15
2022-08-17T14:04:11.781Z,7.95
2022-08-17T14:10:20.066Z,13.50
2022-08-17T14:13:29.130Z,8.73
2022-08-17T14:16:39.566Z,14.68
2022-08-17T14:19:16.382Z,10.73
2022-08-17T14:21:48.786Z,7.47
2022-08-17T14:24:38.955Z,9.52
2022-08-17T14:27:17.701Z,11.20
2022-08-17T14:29:54.317Z,11.23
2022-08-17T14:32:29.867Z,8.73
2022-08-17T14:35:00.754Z,11.93
2022-08-17T14:37:31.396Z,7.85
2022-08-17T14:40:02.927Z,8.57
2022-08-17T14:42:32.755Z,8.57
2022-08-17T14:45:04.450Z,7.93
2022-08-17T14:47:39.557Z,19.85
2022-08-17T14:50:13.504Z,9.10
2022-08-17T14:52:48.505Z,13.48
2022-08-17T14:55:21.593Z,8.13
2022-08-17T14:57:52.236Z,8.23
2022-08-17T15:00:24.029Z,11.05
2022-08-17T15:02:56.722Z,7.45
2022-08-17T15:05:31.906Z,9.93
2022-08-17T15:08:02.151Z,8.50
2022-08-17T15:10:32.412Z,10.40
2022-08-17T15:13:01.503Z,8.95
2022-08-17T15:15:30.098Z,13.52
2022-08-17T15:17:59.947Z,10.30
2022-08-17T15:20:31.281Z,9.45
2022-08-17T15:22:59.850Z,9.57
2022-08-17T15:25:30.269Z,7.72
2022-08-17T15:27:59.037Z,8.60
2022-08-17T15:30:28.482Z,8.63
2022-08-17T15:32:58.803Z,10.50
2022-08-17T15:35:35.613Z,9.30
2022-08-17T15:38:11.556Z,8.77
2022-08-17T15:40:42.346Z,10.02
2022-08-17T15:43:13.915Z,8.05
2022-08-17T15:45:42.195Z,10.23
2022-08-17T15:48:10.640Z,8.30
2022-08-17T15:50:39.810Z,13.02
2022-08-17T15:53:07.736Z,11.00
2022-08-17T15:55:36.627Z,7.32
2022-08-17T15:58:04.735Z,12.80
2022-08-17T16:00:44.115Z,10.40
2022-08-17T16:03:58.211Z,9.85
2022-08-17T16:06:09.831Z,11.63
2022-08-17T16:08:41.685Z,8.77
2022-08-17T16:11:10.912Z,7.07
2022-08-17T16:13:39.513Z,11.38
2022-08-17T16:16:08.310Z,14.90
2022-08-17T16:18:36.499Z,10.75
2022-08-17T16:21:21.835Z,8.00
2022-08-17T16:23:53.378Z,7.05
2022-08-17T16:26:22.873Z,6.85
2022-08-17T16:28:51.298Z,10.43
2022-08-17T16:31:19.152Z,6.18
2022-08-17T16:34:16.306Z,6.35
2022-08-17T16:36:37.365Z,6.05
2022-08-17T16:39:06.686Z,8.10
2022-08-17T16:41:46.618Z,8.85
2022-08-17T16:44:16.805Z,8.77
2022-08-17T16:46:45.998Z,5.78
2022-08-17T16:49:35.969Z,6.80
2022-08-17T16:52:05.761Z,6.72
2022-08-17T16:54:35.849Z,5.22
2022-08-17T16:57:04.999Z,6.65
2022-08-17T16:59:40.749Z,5.40
2022-08-17T17:02:14.220Z,8.45
2022-08-17T17:04:47.386Z,7.60
2022-08-17T17:07:44.864Z,5.93
2022-08-17T17:10:18.110Z,6.60
2022-08-17T17:13:02.090Z,6.55
2022-08-17T17:15:42.365Z,4.95
2022-08-17T17:18:15.167Z,7.70
2022-08-17T17:20:48.793Z,8.82
2022-08-17T17:23:33.146Z,8.70
2022-08-17T17:26:12.533Z,6.40
2022-08-17T17:28:53.078Z,6.13
2022-08-17T17:31:24.100Z,7.28
2022-08-17T17:33:55.859Z,4.72
2022-08-17T17:36:27.269Z,4.93
2022-08-17T17:39:01.262Z,6.90
2022-08-17T17:41:34.932Z,8.27
2022-08-17T17:44:09.125Z,5.35
2022-08-17T17:46:40.805Z,6.03
2022-08-17T17:49:10.525Z,4.97
2022-08-17T17:52:02.832Z,5.03
2022-08-17T17:54:49.882Z,6.57
2022-08-17T17:57:27.621Z,5.18
2022-08-17T18:00:03.524Z,11.50
2022-08-17T18:02:52.594Z,5.57
2022-08-17T18:05:35.731Z,12.10
2022-08-17T18:08:15.757Z,6.63
2022-08-17T18:10:50.842Z,10.95
2022-08-17T18:13:35.341Z,6.97
2022-08-17T18:16:07.883Z,5.10
2022-08-17T18:18:40.580Z,6.43
2022-08-17T18:21:16.742Z,4.95
2022-08-17T18:23:51.784Z,6.82
2022-08-17T18:26:38.015Z,5.45
2022-08-17T18:29:22.278Z,12.15
2022-08-17T18:32:10.302Z,6.65
2022-08-17T18:34:46.987Z,5.88
2022-08-17T18:37:32.835Z,6.28
2022-08-17T18:40:04.696Z,5.57
2022-08-17T18:42:32.655Z,7.82
2022-08-17T18:45:01.946Z,6.10
2022-08-17T18:47:30.571Z,6.43
2022-08-17T18:50:02.253Z,6.10
2022-08-17T18:52:32.373Z,7.45
2022-08-17T18:55:09.663Z,6.50
2022-08-17T18:57:40.820Z,7.82
2022-08-17T19:00:18.514Z,7.15
2022-08-17T19:02:53.402Z,8.43
2022-08-17T19:05:34.201Z,7.80
2022-08-17T19:08:22.411Z,7.70
2022-08-17T19:10:52.962Z,11.80
2022-08-17T19:13:25.568Z,9.68
2022-08-17T19:16:07.793Z,9.50
2022-08-17T19:18:47.295Z,9.13
2022-08-17T19:21:20.585Z,9.02
2022-08-17T19:23:54.574Z,8.18
2022-08-17T19:26:53.884Z,7.30
2022-08-17T19:29:19.524Z,9.93
2022-08-17T19:31:52.764Z,9.32
2022-08-17T19:34:32.338Z,8.80
2022-08-17T19:37:08.850Z,8.68
2022-08-17T19:39:44.021Z,8.25
2022-08-17T19:42:16.149Z,7.55
2022-08-17T19:44:55.192Z,8.57
2022-08-17T19:47:54.238Z,7.55
2022-08-17T19:50:31.058Z,12.30
2022-08-17T19:53:07.201Z,11.35
2022-08-17T19:55:47.552Z,7.53
2022-08-17T19:58:42.925Z,9.30
2022-08-17T20:01:18.583Z,12.20
2022-08-17T20:03:54.471Z,8.43
2022-08-17T20:06:24.004Z,9.00
2022-08-17T20:08:59.415Z,12.90
2022-08-17T20:11:33.207Z,8.82
2022-08-17T20:14:05.588Z,8.07
2022-08-17T20:16:34.371Z,8.90
2022-08-17T20:19:08.770Z,8.68
2022-08-17T20:21:42.304Z,9.20
2022-08-17T20:24:20.907Z,8.88
2022-08-17T20:26:58.552Z,8.70
2022-08-17T20:29:40.287Z,9.48
2022-08-17T20:32:25.205Z,9.52
2022-08-17T20:35:08.935Z,8.75
2022-08-17T20:37:43.004Z,8.43
2022-08-17T20:40:25.825Z,9.00
2022-08-17T20:42:53.751Z,9.38
2022-08-17T20:45:57.682Z,10.80
2022-08-17T20:48:38.723Z,9.05
2022-08-17T20:51:22.303Z,8.93
2022-08-17T20:54:26.372Z,8.80
2022-08-17T20:56:57.680Z,9.68
2022-08-17T20:59:55.105Z,10.10
2022-08-17T21:02:26.237Z,12.52
2022-08-17T21:05:07.302Z,9.00
2022-08-17T21:07:58.852Z,8.77
2022-08-17T21:10:36.451Z,8.75
2022-08-17T21:13:46.708Z,12.90
2022-08-17T21:16:36.024Z,9.52
2022-08-17T21:19:19.477Z,9.98
2022-08-17T21:22:02.781Z,12.35
2022-08-17T21:24:46.562Z,11.35
2022-08-17T21:27:28.360Z,10.10
2022-08-17T21:30:22.178Z,9.68
2022-08-17T21:33:25.408Z,9.48
2022-08-17T21:36:16.375Z,10.35
2022-08-17T21:39:02.596Z,10.07
2022-08-17T21:41:36.480Z,9.50
2022-08-17T21:44:13.087Z,12.32
2022-08-17T21:46:46.529Z,10.07
2022-08-17T21:49:17.760Z,10.57
2022-08-17T21:51:51.338Z,9.63
2022-08-17T21:54:31.351Z,9.98
2022-08-17T21:57:03.070Z,12.00
2022-08-17T21:59:35.927Z,10.05
2022-08-17T22:02:06.807Z,13.60
2022-08-17T22:04:37.744Z,9.68
2022-08-17T22:07:08.287Z,10.95
2022-08-17T22:09:43.122Z,11.18
2022-08-17T22:12:17.148Z,10.43
2022-08-17T22:14:51.586Z,10.57
2022-08-17T22:17:24.679Z,11.73
2022-08-17T22:19:56.807Z,10.93
2022-08-17T22:22:32.840Z,10.60
2022-08-17T22:25:03.436Z,10.57
2022-08-17T22:27:56.419Z,10.18
2022-08-17T22:30:36.196Z,10.60
2022-08-17T22:33:36.212Z,11.70
2022-08-17T22:36:28.880Z,11.68
2022-08-17T22:38:59.931Z,9.68
2022-08-17T22:41:42.184Z,12.75
2022-08-17T22:44:24.951Z,10.93
2022-08-17T22:47:11.742Z,14.55
2022-08-17T22:49:53.167Z,10.73
2022-08-17T22:52:33.299Z,14.23
2022-08-17T22:55:23.020Z,10.15
2022-08-17T22:58:09.665Z,10.82
2022-08-17T23:00:43.211Z,10.65
2022-08-17T23:03:18.078Z,10.60
2022-08-17T23:06:03.361Z,10.77
2022-08-17T23:08:34.233Z,11.00
2022-08-17T23:11:03.877Z,11.25
2022-08-17T23:13:33.294Z,11.55
2022-08-17T23:16:02.618Z,11.77
2022-08-17T23:18:30.488Z,11.02
2022-08-17T23:20:58.300Z,12.68
2022-08-17T23:23:26.512Z,10.60
2022-08-17T23:25:54.502Z,11.98
2022-08-17T23:28:22.390Z,11.57
2022-08-17T23:30:50.338Z,12.20
2022-08-17T23:33:22.510Z,12.32
2022-08-17T23:35:50.353Z,11.05
2022-08-17T23:38:18.173Z,12.02
2022-08-17T23:40:46.468Z,12.23
2022-08-17T23:43:24.655Z,15.38
2022-08-17T23:45:56.398Z,12.20
2022-08-17T23:48:35.844Z,12.60
2022-08-17T23:51:09.672Z,14.02
2022-08-17T23:53:42.623Z,12.43
2022-08-17T23:56:11.690Z,12.70
2022-08-17T23:58:41.865Z,12.63
